Portada
METAR-TAF:

METAR-TAF

Aeropuertos :

Pekín, China

Aeropuerto Internacional de Pekín-Capital

latitud: 39-56N, longitud: 116-17E, altitud: 55 m

Observación

El informe se hizo hace 35 minutos, a las 09:00 UTC
Viento 8 kt del este-sureste, variando entre este y sur-sureste
Temperatura 26°C
Humedad 48%
Presión 1009 hPa
Visibilidad: 6000 m

METAR: ZBAA 190900Z 12004MPS 090V150 6000 NSC 26/14 Q1009 NOSIG

Hora: 17:35 (09:35 UTC)

Pronóstico

El informe se hizo hace 6 horas y 5 minutos, a las 03:30 UTC
Pronóstico válido del 19 a las 06 UTC al 20 a las 06 UTC
Viento 8 kt del sur-sureste
Visibilidad: 3500 m
calima

TAF: ZBAA 190330Z 1906/2006 15004MPS 3500 HZ NSC TX26/1907Z TN15/1921Z

Observaciones y pronósticos meteorológicos de más de 4000 aeropuertos (mensajes METAR y TAF).

Los puntos amarillos y rojos representan las estaciones disponibles.

Ponga el ratón en el punto deseado para ver el nombre de la estación.

Haga clic para ver las observaciones y los pronósticos meteorológicos.

Para cambiar el mapa : haga clic en los botones verdes con una cruz de color negro para hacer un zoom, en el botón verde con un guión para alejar o en las flechas verdes para mapas adyacentes.


METAR-TAF: